sensor_id;sensor_type;location;lat;lon;timestamp;P1;durP1;ratioP1;P2;durP2;ratioP2
20870;SDS011;10595;51.218;3.452;2023-08-31T00:02:15;11.80;;;5.83;;
20870;SDS011;10595;51.218;3.452;2023-08-31T00:04:41;10.80;;;6.50;;
20870;SDS011;10595;51.218;3.452;2023-08-31T00:07:07;10.83;;;6.37;;
20870;SDS011;10595;51.218;3.452;2023-08-31T00:09:33;10.00;;;6.80;;
20870;SDS011;10595;51.218;3.452;2023-08-31T00:12:01;14.70;;;6.73;;
20870;SDS011;10595;51.218;3.452;2023-08-31T00:14:27;10.97;;;7.10;;
20870;SDS011;10595;51.218;3.452;2023-08-31T00:16:53;11.37;;;7.03;;
20870;SDS011;10595;51.218;3.452;2023-08-31T00:19:22;13.17;;;6.40;;
20870;SDS011;10595;51.218;3.452;2023-08-31T00:21:48;9.40;;;6.60;;
20870;SDS011;10595;51.218;3.452;2023-08-31T00:24:14;9.80;;;6.60;;
20870;SDS011;10595;51.218;3.452;2023-08-31T00:26:40;12.77;;;6.63;;
20870;SDS011;10595;51.218;3.452;2023-08-31T00:29:10;9.80;;;6.63;;
20870;SDS011;10595;51.218;3.452;2023-08-31T00:31:36;16.87;;;7.17;;
20870;SDS011;10595;51.218;3.452;2023-08-31T00:34:03;9.77;;;7.00;;
20870;SDS011;10595;51.218;3.452;2023-08-31T00:36:32;8.53;;;6.33;;
20870;SDS011;10595;51.218;3.452;2023-08-31T00:39:02;13.17;;;6.47;;
20870;SDS011;10595;51.218;3.452;2023-08-31T00:41:30;15.47;;;7.10;;
20870;SDS011;10595;51.218;3.452;2023-08-31T00:43:57;10.73;;;7.17;;
20870;SDS011;10595;51.218;3.452;2023-08-31T00:46:23;13.50;;;6.30;;
20870;SDS011;10595;51.218;3.452;2023-08-31T00:48:52;10.93;;;6.83;;
20870;SDS011;10595;51.218;3.452;2023-08-31T00:51:19;11.67;;;6.90;;
20870;SDS011;10595;51.218;3.452;2023-08-31T00:53:44;8.77;;;5.83;;
20870;SDS011;10595;51.218;3.452;2023-08-31T00:56:11;10.50;;;7.00;;
20870;SDS011;10595;51.218;3.452;2023-08-31T00:58:38;10.40;;;6.47;;
20870;SDS011;10595;51.218;3.452;2023-08-31T01:03:48;14.33;;;7.40;;
20870;SDS011;10595;51.218;3.452;2023-08-31T01:06:18;14.57;;;7.73;;
20870;SDS011;10595;51.218;3.452;2023-08-31T01:11:21;9.93;;;6.73;;
20870;SDS011;10595;51.218;3.452;2023-08-31T01:13:51;10.53;;;7.00;;
20870;SDS011;10595;51.218;3.452;2023-08-31T01:16:19;9.80;;;6.43;;
20870;SDS011;10595;51.218;3.452;2023-08-31T01:18:49;9.87;;;6.90;;
20870;SDS011;10595;51.218;3.452;2023-08-31T01:21:25;7.67;;;6.10;;
20870;SDS011;10595;51.218;3.452;2023-08-31T01:23:56;12.37;;;7.20;;
20870;SDS011;10595;51.218;3.452;2023-08-31T01:26:23;11.00;;;6.93;;
20870;SDS011;10595;51.218;3.452;2023-08-31T01:28:50;10.20;;;7.43;;
20870;SDS011;10595;51.218;3.452;2023-08-31T01:31:16;9.97;;;7.23;;
20870;SDS011;10595;51.218;3.452;2023-08-31T01:33:43;9.87;;;6.63;;
20870;SDS011;10595;51.218;3.452;2023-08-31T01:36:28;11.83;;;7.17;;
20870;SDS011;10595;51.218;3.452;2023-08-31T01:38:58;10.50;;;7.20;;
20870;SDS011;10595;51.218;3.452;2023-08-31T01:41:28;14.77;;;8.40;;
20870;SDS011;10595;51.218;3.452;2023-08-31T01:43:54;11.53;;;7.87;;
20870;SDS011;10595;51.218;3.452;2023-08-31T01:46:21;11.50;;;8.07;;
20870;SDS011;10595;51.218;3.452;2023-08-31T01:48:47;11.83;;;7.50;;
20870;SDS011;10595;51.218;3.452;2023-08-31T01:51:13;12.93;;;8.70;;
20870;SDS011;10595;51.218;3.452;2023-08-31T01:53:39;11.67;;;8.03;;
20870;SDS011;10595;51.218;3.452;2023-08-31T01:56:05;12.23;;;7.77;;
20870;SDS011;10595;51.218;3.452;2023-08-31T01:58:31;10.63;;;7.83;;
20870;SDS011;10595;51.218;3.452;2023-08-31T02:00:57;13.50;;;8.43;;
20870;SDS011;10595;51.218;3.452;2023-08-31T02:03:23;14.73;;;8.07;;
20870;SDS011;10595;51.218;3.452;2023-08-31T02:05:49;12.50;;;8.17;;
20870;SDS011;10595;51.218;3.452;2023-08-31T02:08:15;11.10;;;8.13;;
20870;SDS011;10595;51.218;3.452;2023-08-31T02:10:43;10.37;;;7.83;;
20870;SDS011;10595;51.218;3.452;2023-08-31T02:13:09;12.33;;;8.10;;
20870;SDS011;10595;51.218;3.452;2023-08-31T02:15:38;10.03;;;8.40;;
20870;SDS011;10595;51.218;3.452;2023-08-31T02:18:04;13.93;;;7.93;;
20870;SDS011;10595;51.218;3.452;2023-08-31T02:20:30;14.10;;;8.47;;
20870;SDS011;10595;51.218;3.452;2023-08-31T02:22:56;16.60;;;9.47;;
20870;SDS011;10595;51.218;3.452;2023-08-31T02:25:23;12.00;;;9.10;;
20870;SDS011;10595;51.218;3.452;2023-08-31T02:27:49;12.80;;;8.77;;
20870;SDS011;10595;51.218;3.452;2023-08-31T02:30:15;11.40;;;8.57;;
20870;SDS011;10595;51.218;3.452;2023-08-31T02:32:41;12.90;;;9.30;;
20870;SDS011;10595;51.218;3.452;2023-08-31T02:35:08;16.87;;;9.77;;
20870;SDS011;10595;51.218;3.452;2023-08-31T02:37:34;15.63;;;9.10;;
20870;SDS011;10595;51.218;3.452;2023-08-31T02:40:00;14.53;;;9.70;;
20870;SDS011;10595;51.218;3.452;2023-08-31T02:42:26;14.87;;;9.67;;
20870;SDS011;10595;51.218;3.452;2023-08-31T02:44:52;15.83;;;10.13;;
20870;SDS011;10595;51.218;3.452;2023-08-31T02:47:19;14.17;;;9.73;;
20870;SDS011;10595;51.218;3.452;2023-08-31T02:49:45;14.10;;;9.00;;
20870;SDS011;10595;51.218;3.452;2023-08-31T02:52:12;15.17;;;9.00;;
20870;SDS011;10595;51.218;3.452;2023-08-31T02:54:39;14.73;;;8.93;;
20870;SDS011;10595;51.218;3.452;2023-08-31T02:57:05;15.20;;;8.80;;
20870;SDS011;10595;51.218;3.452;2023-08-31T02:59:31;13.10;;;9.53;;
20870;SDS011;10595;51.218;3.452;2023-08-31T03:02:00;14.20;;;8.53;;
20870;SDS011;10595;51.218;3.452;2023-08-31T03:04:26;13.03;;;8.77;;
20870;SDS011;10595;51.218;3.452;2023-08-31T03:06:52;14.47;;;8.10;;
20870;SDS011;10595;51.218;3.452;2023-08-31T03:09:18;13.30;;;8.37;;
20870;SDS011;10595;51.218;3.452;2023-08-31T03:11:47;12.13;;;8.03;;
20870;SDS011;10595;51.218;3.452;2023-08-31T03:14:13;12.10;;;8.27;;
20870;SDS011;10595;51.218;3.452;2023-08-31T03:16:39;14.40;;;8.23;;
20870;SDS011;10595;51.218;3.452;2023-08-31T03:19:05;16.43;;;8.60;;
20870;SDS011;10595;51.218;3.452;2023-08-31T03:21:31;13.73;;;8.37;;
20870;SDS011;10595;51.218;3.452;2023-08-31T03:23:57;9.60;;;7.57;;
20870;SDS011;10595;51.218;3.452;2023-08-31T03:26:23;11.27;;;7.57;;
20870;SDS011;10595;51.218;3.452;2023-08-31T03:28:50;15.53;;;8.37;;
20870;SDS011;10595;51.218;3.452;2023-08-31T03:31:16;10.73;;;7.77;;
20870;SDS011;10595;51.218;3.452;2023-08-31T03:33:42;14.37;;;8.47;;
20870;SDS011;10595;51.218;3.452;2023-08-31T03:36:08;13.40;;;8.07;;
20870;SDS011;10595;51.218;3.452;2023-08-31T03:38:34;14.60;;;8.23;;
20870;SDS011;10595;51.218;3.452;2023-08-31T03:41:03;9.80;;;8.17;;
20870;SDS011;10595;51.218;3.452;2023-08-31T03:43:29;20.00;;;9.23;;
20870;SDS011;10595;51.218;3.452;2023-08-31T03:45:56;13.73;;;8.53;;
20870;SDS011;10595;51.218;3.452;2023-08-31T03:48:23;14.17;;;8.77;;
20870;SDS011;10595;51.218;3.452;2023-08-31T03:50:49;13.27;;;8.17;;
20870;SDS011;10595;51.218;3.452;2023-08-31T03:53:16;15.20;;;8.27;;
20870;SDS011;10595;51.218;3.452;2023-08-31T03:55:42;10.17;;;8.07;;
20870;SDS011;10595;51.218;3.452;2023-08-31T03:58:08;14.87;;;8.00;;
20870;SDS011;10595;51.218;3.452;2023-08-31T04:00:34;16.17;;;7.77;;
20870;SDS011;10595;51.218;3.452;2023-08-31T04:03:00;14.07;;;8.20;;
20870;SDS011;10595;51.218;3.452;2023-08-31T04:05:26;19.37;;;9.07;;
20870;SDS011;10595;51.218;3.452;2023-08-31T04:07:52;15.60;;;8.50;;
20870;SDS011;10595;51.218;3.452;2023-08-31T04:10:18;13.13;;;8.50;;
20870;SDS011;10595;51.218;3.452;2023-08-31T04:12:44;13.00;;;8.27;;
20870;SDS011;10595;51.218;3.452;2023-08-31T04:15:10;13.40;;;9.73;;
20870;SDS011;10595;51.218;3.452;2023-08-31T04:17:38;15.17;;;8.10;;
20870;SDS011;10595;51.218;3.452;2023-08-31T04:20:04;15.73;;;8.43;;
20870;SDS011;10595;51.218;3.452;2023-08-31T04:22:31;16.97;;;8.67;;
20870;SDS011;10595;51.218;3.452;2023-08-31T04:24:57;13.53;;;8.10;;
20870;SDS011;10595;51.218;3.452;2023-08-31T04:27:23;15.87;;;8.93;;
20870;SDS011;10595;51.218;3.452;2023-08-31T04:29:49;27.30;;;9.70;;
20870;SDS011;10595;51.218;3.452;2023-08-31T04:32:15;14.77;;;9.27;;
20870;SDS011;10595;51.218;3.452;2023-08-31T04:34:41;15.07;;;9.10;;
20870;SDS011;10595;51.218;3.452;2023-08-31T04:37:07;18.27;;;8.90;;
20870;SDS011;10595;51.218;3.452;2023-08-31T04:39:32;19.27;;;10.07;;
20870;SDS011;10595;51.218;3.452;2023-08-31T04:41:58;15.20;;;9.00;;
20870;SDS011;10595;51.218;3.452;2023-08-31T04:44:24;16.30;;;9.83;;
20870;SDS011;10595;51.218;3.452;2023-08-31T04:46:50;15.37;;;9.47;;
20870;SDS011;10595;51.218;3.452;2023-08-31T04:49:17;18.77;;;9.67;;
20870;SDS011;10595;51.218;3.452;2023-08-31T04:51:43;15.77;;;10.00;;
20870;SDS011;10595;51.218;3.452;2023-08-31T04:54:10;19.67;;;9.87;;
20870;SDS011;10595;51.218;3.452;2023-08-31T04:56:36;19.00;;;10.10;;
20870;SDS011;10595;51.218;3.452;2023-08-31T04:59:02;17.80;;;10.30;;
20870;SDS011;10595;51.218;3.452;2023-08-31T05:01:28;17.00;;;11.10;;
20870;SDS011;10595;51.218;3.452;2023-08-31T05:03:54;22.87;;;10.77;;
20870;SDS011;10595;51.218;3.452;2023-08-31T05:06:20;16.83;;;9.70;;
20870;SDS011;10595;51.218;3.452;2023-08-31T05:08:47;18.10;;;10.20;;
20870;SDS011;10595;51.218;3.452;2023-08-31T05:11:13;16.53;;;9.83;;
20870;SDS011;10595;51.218;3.452;2023-08-31T05:13:39;18.60;;;10.70;;
20870;SDS011;10595;51.218;3.452;2023-08-31T05:16:07;17.67;;;10.57;;
20870;SDS011;10595;51.218;3.452;2023-08-31T05:18:33;20.60;;;10.70;;
20870;SDS011;10595;51.218;3.452;2023-08-31T05:21:00;17.83;;;10.03;;
20870;SDS011;10595;51.218;3.452;2023-08-31T05:23:27;16.90;;;10.43;;
20870;SDS011;10595;51.218;3.452;2023-08-31T05:25:53;16.73;;;10.80;;
20870;SDS011;10595;51.218;3.452;2023-08-31T05:28:21;18.13;;;9.97;;
20870;SDS011;10595;51.218;3.452;2023-08-31T05:30:50;18.73;;;10.93;;
20870;SDS011;10595;51.218;3.452;2023-08-31T05:33:17;19.90;;;10.60;;
20870;SDS011;10595;51.218;3.452;2023-08-31T05:35:43;18.27;;;10.63;;
20870;SDS011;10595;51.218;3.452;2023-08-31T05:38:10;21.67;;;11.37;;
20870;SDS011;10595;51.218;3.452;2023-08-31T05:40:36;27.70;;;11.07;;
20870;SDS011;10595;51.218;3.452;2023-08-31T05:43:02;16.57;;;11.30;;
20870;SDS011;10595;51.218;3.452;2023-08-31T05:45:32;19.63;;;10.87;;
20870;SDS011;10595;51.218;3.452;2023-08-31T05:47:58;20.07;;;11.43;;
20870;SDS011;10595;51.218;3.452;2023-08-31T05:50:24;18.60;;;11.80;;
20870;SDS011;10595;51.218;3.452;2023-08-31T05:52:50;21.17;;;11.13;;
20870;SDS011;10595;51.218;3.452;2023-08-31T05:55:16;19.13;;;11.23;;
20870;SDS011;10595;51.218;3.452;2023-08-31T05:57:42;21.03;;;10.77;;
20870;SDS011;10595;51.218;3.452;2023-08-31T06:00:08;19.37;;;11.27;;
20870;SDS011;10595;51.218;3.452;2023-08-31T06:02:34;17.93;;;11.33;;
20870;SDS011;10595;51.218;3.452;2023-08-31T06:05:01;25.07;;;11.20;;
20870;SDS011;10595;51.218;3.452;2023-08-31T06:07:28;16.00;;;10.67;;
20870;SDS011;10595;51.218;3.452;2023-08-31T06:09:54;22.77;;;10.87;;
20870;SDS011;10595;51.218;3.452;2023-08-31T06:12:20;17.77;;;10.50;;
20870;SDS011;10595;51.218;3.452;2023-08-31T06:14:46;22.87;;;10.33;;
20870;SDS011;10595;51.218;3.452;2023-08-31T06:17:12;22.13;;;11.33;;
20870;SDS011;10595;51.218;3.452;2023-08-31T06:19:41;24.97;;;10.90;;
20870;SDS011;10595;51.218;3.452;2023-08-31T06:22:07;17.93;;;10.30;;
20870;SDS011;10595;51.218;3.452;2023-08-31T06:24:33;16.93;;;10.70;;
20870;SDS011;10595;51.218;3.452;2023-08-31T06:27:01;17.30;;;9.63;;
20870;SDS011;10595;51.218;3.452;2023-08-31T06:29:27;20.17;;;9.77;;
20870;SDS011;10595;51.218;3.452;2023-08-31T06:31:53;22.73;;;12.30;;
20870;SDS011;10595;51.218;3.452;2023-08-31T06:34:19;19.90;;;10.40;;
20870;SDS011;10595;51.218;3.452;2023-08-31T06:36:45;18.90;;;10.03;;
20870;SDS011;10595;51.218;3.452;2023-08-31T06:39:11;17.37;;;10.30;;
20870;SDS011;10595;51.218;3.452;2023-08-31T06:41:37;20.53;;;9.80;;
20870;SDS011;10595;51.218;3.452;2023-08-31T06:44:03;22.20;;;10.17;;
20870;SDS011;10595;51.218;3.452;2023-08-31T06:46:30;21.23;;;9.93;;
20870;SDS011;10595;51.218;3.452;2023-08-31T06:49:03;18.03;;;9.80;;
20870;SDS011;10595;51.218;3.452;2023-08-31T06:51:29;17.30;;;10.10;;
20870;SDS011;10595;51.218;3.452;2023-08-31T06:53:55;18.30;;;9.23;;
20870;SDS011;10595;51.218;3.452;2023-08-31T06:56:27;16.57;;;9.50;;
20870;SDS011;10595;51.218;3.452;2023-08-31T06:58:53;15.10;;;9.50;;
20870;SDS011;10595;51.218;3.452;2023-08-31T07:01:19;18.97;;;9.60;;
20870;SDS011;10595;51.218;3.452;2023-08-31T07:03:45;23.40;;;9.53;;
20870;SDS011;10595;51.218;3.452;2023-08-31T07:06:11;19.03;;;9.83;;
20870;SDS011;10595;51.218;3.452;2023-08-31T07:08:37;15.97;;;9.70;;
20870;SDS011;10595;51.218;3.452;2023-08-31T07:11:05;15.07;;;8.87;;
20870;SDS011;10595;51.218;3.452;2023-08-31T07:13:31;17.47;;;9.27;;
20870;SDS011;10595;51.218;3.452;2023-08-31T07:15:57;12.70;;;8.97;;
20870;SDS011;10595;51.218;3.452;2023-08-31T07:18:23;18.30;;;8.83;;
20870;SDS011;10595;51.218;3.452;2023-08-31T07:20:49;16.57;;;8.83;;
20870;SDS011;10595;51.218;3.452;2023-08-31T07:23:15;16.50;;;8.33;;
20870;SDS011;10595;51.218;3.452;2023-08-31T07:25:41;17.23;;;8.13;;
20870;SDS011;10595;51.218;3.452;2023-08-31T07:28:07;19.97;;;8.53;;
20870;SDS011;10595;51.218;3.452;2023-08-31T07:30:33;11.27;;;7.80;;
20870;SDS011;10595;51.218;3.452;2023-08-31T07:32:59;14.03;;;8.07;;
20870;SDS011;10595;51.218;3.452;2023-08-31T07:35:28;18.13;;;8.33;;
20870;SDS011;10595;51.218;3.452;2023-08-31T07:37:54;15.67;;;8.00;;
20870;SDS011;10595;51.218;3.452;2023-08-31T07:40:20;14.03;;;8.53;;
20870;SDS011;10595;51.218;3.452;2023-08-31T07:42:46;14.30;;;7.63;;
20870;SDS011;10595;51.218;3.452;2023-08-31T07:45:12;12.07;;;7.63;;
20870;SDS011;10595;51.218;3.452;2023-08-31T07:47:38;12.83;;;7.53;;
20870;SDS011;10595;51.218;3.452;2023-08-31T07:50:04;13.13;;;7.07;;
20870;SDS011;10595;51.218;3.452;2023-08-31T07:52:31;13.80;;;7.23;;
20870;SDS011;10595;51.218;3.452;2023-08-31T07:54:58;13.27;;;6.83;;
20870;SDS011;10595;51.218;3.452;2023-08-31T07:57:24;12.57;;;6.57;;
20870;SDS011;10595;51.218;3.452;2023-08-31T07:59:50;11.00;;;6.17;;
20870;SDS011;10595;51.218;3.452;2023-08-31T08:02:16;13.17;;;7.47;;
20870;SDS011;10595;51.218;3.452;2023-08-31T08:04:42;16.67;;;6.83;;
20870;SDS011;10595;51.218;3.452;2023-08-31T08:07:08;9.20;;;6.83;;
20870;SDS011;10595;51.218;3.452;2023-08-31T08:09:34;11.07;;;6.90;;
20870;SDS011;10595;51.218;3.452;2023-08-31T08:12:00;11.43;;;6.67;;
20870;SDS011;10595;51.218;3.452;2023-08-31T08:14:26;10.67;;;6.60;;
20870;SDS011;10595;51.218;3.452;2023-08-31T08:16:52;9.67;;;6.60;;
20870;SDS011;10595;51.218;3.452;2023-08-31T08:19:22;10.90;;;6.57;;
20870;SDS011;10595;51.218;3.452;2023-08-31T08:21:48;9.60;;;5.80;;
20870;SDS011;10595;51.218;3.452;2023-08-31T08:24:14;12.60;;;5.87;;
20870;SDS011;10595;51.218;3.452;2023-08-31T08:26:40;10.57;;;6.23;;
20870;SDS011;10595;51.218;3.452;2023-08-31T08:29:06;9.80;;;5.97;;
20870;SDS011;10595;51.218;3.452;2023-08-31T08:31:32;9.13;;;5.70;;
20870;SDS011;10595;51.218;3.452;2023-08-31T08:33:58;9.00;;;5.87;;
20870;SDS011;10595;51.218;3.452;2023-08-31T08:36:25;13.00;;;5.50;;
20870;SDS011;10595;51.218;3.452;2023-08-31T08:38:51;13.27;;;5.90;;
20870;SDS011;10595;51.218;3.452;2023-08-31T08:41:22;9.67;;;5.37;;
20870;SDS011;10595;51.218;3.452;2023-08-31T08:43:48;9.97;;;5.40;;
20870;SDS011;10595;51.218;3.452;2023-08-31T08:46:16;10.50;;;5.07;;
20870;SDS011;10595;51.218;3.452;2023-08-31T08:48:42;7.93;;;4.87;;
20870;SDS011;10595;51.218;3.452;2023-08-31T08:51:09;9.93;;;5.57;;
20870;SDS011;10595;51.218;3.452;2023-08-31T08:53:35;7.93;;;4.97;;
20870;SDS011;10595;51.218;3.452;2023-08-31T08:56:03;10.87;;;5.20;;
20870;SDS011;10595;51.218;3.452;2023-08-31T08:58:29;8.67;;;5.20;;
20870;SDS011;10595;51.218;3.452;2023-08-31T09:00:55;10.93;;;5.47;;
20870;SDS011;10595;51.218;3.452;2023-08-31T09:03:22;9.67;;;5.47;;
20870;SDS011;10595;51.218;3.452;2023-08-31T09:05:49;9.70;;;5.00;;
20870;SDS011;10595;51.218;3.452;2023-08-31T09:08:16;8.13;;;5.10;;
20870;SDS011;10595;51.218;3.452;2023-08-31T09:10:43;12.50;;;4.67;;
20870;SDS011;10595;51.218;3.452;2023-08-31T09:13:10;8.53;;;4.53;;
20870;SDS011;10595;51.218;3.452;2023-08-31T09:15:40;7.23;;;4.93;;
20870;SDS011;10595;51.218;3.452;2023-08-31T09:18:07;8.70;;;4.53;;
20870;SDS011;10595;51.218;3.452;2023-08-31T09:20:46;9.43;;;4.07;;
20870;SDS011;10595;51.218;3.452;2023-08-31T09:23:12;5.70;;;3.63;;
20870;SDS011;10595;51.218;3.452;2023-08-31T09:25:45;6.17;;;4.00;;
20870;SDS011;10595;51.218;3.452;2023-08-31T09:28:13;10.77;;;4.27;;
20870;SDS011;10595;51.218;3.452;2023-08-31T09:30:40;7.67;;;4.40;;
20870;SDS011;10595;51.218;3.452;2023-08-31T09:33:09;6.00;;;3.83;;
20870;SDS011;10595;51.218;3.452;2023-08-31T09:35:47;5.93;;;3.97;;
20870;SDS011;10595;51.218;3.452;2023-08-31T09:38:14;7.37;;;4.70;;
20870;SDS011;10595;51.218;3.452;2023-08-31T09:40:41;7.57;;;4.07;;
20870;SDS011;10595;51.218;3.452;2023-08-31T09:43:07;9.37;;;4.50;;
20870;SDS011;10595;51.218;3.452;2023-08-31T09:45:34;7.10;;;4.20;;
20870;SDS011;10595;51.218;3.452;2023-08-31T09:48:00;5.80;;;3.80;;
20870;SDS011;10595;51.218;3.452;2023-08-31T09:50:30;7.47;;;4.00;;
20870;SDS011;10595;51.218;3.452;2023-08-31T09:53:00;6.83;;;4.10;;
20870;SDS011;10595;51.218;3.452;2023-08-31T09:55:27;8.97;;;3.77;;
20870;SDS011;10595;51.218;3.452;2023-08-31T09:57:57;4.77;;;3.60;;
20870;SDS011;10595;51.218;3.452;2023-08-31T10:00:25;8.73;;;4.00;;
20870;SDS011;10595;51.218;3.452;2023-08-31T10:02:52;6.40;;;3.80;;
20870;SDS011;10595;51.218;3.452;2023-08-31T10:05:18;4.57;;;2.93;;
20870;SDS011;10595;51.218;3.452;2023-08-31T10:07:44;8.20;;;3.17;;
20870;SDS011;10595;51.218;3.452;2023-08-31T10:10:11;10.10;;;3.27;;
20870;SDS011;10595;51.218;3.452;2023-08-31T10:12:37;4.57;;;2.90;;
20870;SDS011;10595;51.218;3.452;2023-08-31T10:15:04;7.63;;;3.30;;
20870;SDS011;10595;51.218;3.452;2023-08-31T10:17:30;5.80;;;3.00;;
20870;SDS011;10595;51.218;3.452;2023-08-31T10:19:56;6.57;;;3.80;;
20870;SDS011;10595;51.218;3.452;2023-08-31T10:22:23;4.87;;;3.20;;
20870;SDS011;10595;51.218;3.452;2023-08-31T10:27:24;8.37;;;3.30;;
20870;SDS011;10595;51.218;3.452;2023-08-31T10:29:50;13.43;;;4.70;;
20870;SDS011;10595;51.218;3.452;2023-08-31T10:32:16;4.70;;;3.50;;
20870;SDS011;10595;51.218;3.452;2023-08-31T10:35:05;6.00;;;3.30;;
20870;SDS011;10595;51.218;3.452;2023-08-31T10:37:31;7.33;;;3.37;;
20870;SDS011;10595;51.218;3.452;2023-08-31T10:40:07;8.97;;;3.30;;
20870;SDS011;10595;51.218;3.452;2023-08-31T10:42:41;10.30;;;3.27;;
20870;SDS011;10595;51.218;3.452;2023-08-31T10:45:07;8.23;;;3.43;;
20870;SDS011;10595;51.218;3.452;2023-08-31T10:47:37;5.50;;;2.63;;
20870;SDS011;10595;51.218;3.452;2023-08-31T10:50:19;7.35;;;2.78;;
20870;SDS011;10595;51.218;3.452;2023-08-31T10:52:46;5.70;;;2.80;;
20870;SDS011;10595;51.218;3.452;2023-08-31T10:55:12;7.13;;;3.20;;
20870;SDS011;10595;51.218;3.452;2023-08-31T10:57:39;6.47;;;2.87;;
20870;SDS011;10595;51.218;3.452;2023-08-31T11:00:06;8.13;;;3.47;;
20870;SDS011;10595;51.218;3.452;2023-08-31T11:05:14;9.07;;;3.00;;
20870;SDS011;10595;51.218;3.452;2023-08-31T11:07:41;9.27;;;2.73;;
20870;SDS011;10595;51.218;3.452;2023-08-31T11:12:37;4.90;;;2.37;;
20870;SDS011;10595;51.218;3.452;2023-08-31T11:15:03;5.53;;;2.50;;
20870;SDS011;10595;51.218;3.452;2023-08-31T11:17:30;9.77;;;2.20;;
20870;SDS011;10595;51.218;3.452;2023-08-31T11:19:59;8.18;;;2.45;;
20870;SDS011;10595;51.218;3.452;2023-08-31T11:22:26;4.30;;;2.20;;
20870;SDS011;10595;51.218;3.452;2023-08-31T11:24:52;5.87;;;3.03;;
20870;SDS011;10595;51.218;3.452;2023-08-31T11:27:21;5.77;;;2.00;;
20870;SDS011;10595;51.218;3.452;2023-08-31T11:29:47;4.90;;;2.17;;
20870;SDS011;10595;51.218;3.452;2023-08-31T11:32:13;4.93;;;2.30;;
20870;SDS011;10595;51.218;3.452;2023-08-31T11:34:40;6.87;;;2.37;;
20870;SDS011;10595;51.218;3.452;2023-08-31T11:37:07;6.03;;;2.10;;
20870;SDS011;10595;51.218;3.452;2023-08-31T11:39:33;4.17;;;1.87;;
20870;SDS011;10595;51.218;3.452;2023-08-31T11:41:59;2.87;;;1.77;;
20870;SDS011;10595;51.218;3.452;2023-08-31T11:44:25;7.83;;;2.50;;
20870;SDS011;10595;51.218;3.452;2023-08-31T11:46:51;4.20;;;1.97;;
20870;SDS011;10595;51.218;3.452;2023-08-31T11:49:18;3.27;;;2.30;;
20870;SDS011;10595;51.218;3.452;2023-08-31T11:51:44;5.40;;;2.17;;
20870;SDS011;10595;51.218;3.452;2023-08-31T11:54:10;6.17;;;2.30;;
20870;SDS011;10595;51.218;3.452;2023-08-31T11:56:40;5.57;;;2.67;;
20870;SDS011;10595;51.218;3.452;2023-08-31T11:59:10;5.87;;;2.17;;
20870;SDS011;10595;51.218;3.452;2023-08-31T12:01:40;6.47;;;2.00;;
20870;SDS011;10595;51.218;3.452;2023-08-31T12:04:15;3.50;;;2.00;;
20870;SDS011;10595;51.218;3.452;2023-08-31T12:06:42;6.57;;;2.40;;
20870;SDS011;10595;51.218;3.452;2023-08-31T12:09:12;5.07;;;2.00;;
20870;SDS011;10595;51.218;3.452;2023-08-31T12:11:38;7.43;;;2.20;;
20870;SDS011;10595;51.218;3.452;2023-08-31T12:14:14;5.77;;;2.33;;
20870;SDS011;10595;51.218;3.452;2023-08-31T12:16:43;5.03;;;2.17;;
20870;SDS011;10595;51.218;3.452;2023-08-31T12:19:09;6.20;;;2.30;;
20870;SDS011;10595;51.218;3.452;2023-08-31T12:21:36;5.57;;;2.50;;
20870;SDS011;10595;51.218;3.452;2023-08-31T12:24:02;4.73;;;2.10;;
20870;SDS011;10595;51.218;3.452;2023-08-31T12:26:28;4.83;;;2.03;;
20870;SDS011;10595;51.218;3.452;2023-08-31T12:28:55;6.93;;;2.57;;
20870;SDS011;10595;51.218;3.452;2023-08-31T12:31:22;8.40;;;2.50;;
20870;SDS011;10595;51.218;3.452;2023-08-31T12:33:48;3.80;;;1.93;;
20870;SDS011;10595;51.218;3.452;2023-08-31T12:36:14;6.30;;;1.97;;
20870;SDS011;10595;51.218;3.452;2023-08-31T12:38:40;7.33;;;2.30;;
20870;SDS011;10595;51.218;3.452;2023-08-31T12:41:06;4.17;;;1.73;;
20870;SDS011;10595;51.218;3.452;2023-08-31T12:43:33;5.27;;;2.00;;
20870;SDS011;10595;51.218;3.452;2023-08-31T12:45:59;8.27;;;2.13;;
20870;SDS011;10595;51.218;3.452;2023-08-31T12:48:26;5.63;;;1.70;;
20870;SDS011;10595;51.218;3.452;2023-08-31T12:50:52;4.23;;;1.70;;
20870;SDS011;10595;51.218;3.452;2023-08-31T12:53:20;4.93;;;1.90;;
20870;SDS011;10595;51.218;3.452;2023-08-31T12:55:46;2.83;;;1.60;;
20870;SDS011;10595;51.218;3.452;2023-08-31T12:58:12;5.43;;;2.10;;
20870;SDS011;10595;51.218;3.452;2023-08-31T13:00:38;5.97;;;2.27;;
20870;SDS011;10595;51.218;3.452;2023-08-31T13:03:04;6.90;;;2.07;;
20870;SDS011;10595;51.218;3.452;2023-08-31T13:05:32;5.00;;;2.33;;
20870;SDS011;10595;51.218;3.452;2023-08-31T13:07:58;6.30;;;2.50;;
20870;SDS011;10595;51.218;3.452;2023-08-31T13:10:24;3.97;;;2.30;;
20870;SDS011;10595;51.218;3.452;2023-08-31T13:12:50;6.40;;;2.33;;
20870;SDS011;10595;51.218;3.452;2023-08-31T13:15:16;10.00;;;2.97;;
20870;SDS011;10595;51.218;3.452;2023-08-31T13:17:42;7.00;;;2.57;;
20870;SDS011;10595;51.218;3.452;2023-08-31T13:20:08;4.83;;;3.00;;
20870;SDS011;10595;51.218;3.452;2023-08-31T13:22:34;6.40;;;2.70;;
20870;SDS011;10595;51.218;3.452;2023-08-31T13:25:00;8.60;;;2.70;;
20870;SDS011;10595;51.218;3.452;2023-08-31T13:27:26;6.47;;;2.87;;
20870;SDS011;10595;51.218;3.452;2023-08-31T13:29:52;6.90;;;3.23;;
20870;SDS011;10595;51.218;3.452;2023-08-31T13:32:18;5.97;;;3.00;;
20870;SDS011;10595;51.218;3.452;2023-08-31T13:34:44;10.30;;;3.37;;
20870;SDS011;10595;51.218;3.452;2023-08-31T13:37:10;11.67;;;3.37;;
20870;SDS011;10595;51.218;3.452;2023-08-31T13:39:36;8.00;;;2.93;;
20870;SDS011;10595;51.218;3.452;2023-08-31T13:42:05;7.67;;;2.57;;
20870;SDS011;10595;51.218;3.452;2023-08-31T13:44:31;7.10;;;2.57;;
20870;SDS011;10595;51.218;3.452;2023-08-31T13:46:58;9.13;;;2.70;;
20870;SDS011;10595;51.218;3.452;2023-08-31T13:49:24;9.07;;;2.97;;
20870;SDS011;10595;51.218;3.452;2023-08-31T13:51:50;4.03;;;2.33;;
20870;SDS011;10595;51.218;3.452;2023-08-31T13:54:16;9.07;;;2.77;;
20870;SDS011;10595;51.218;3.452;2023-08-31T13:56:42;8.60;;;2.47;;
20870;SDS011;10595;51.218;3.452;2023-08-31T13:59:08;8.10;;;2.43;;
20870;SDS011;10595;51.218;3.452;2023-08-31T14:01:34;5.73;;;2.23;;
20870;SDS011;10595;51.218;3.452;2023-08-31T14:04:02;6.37;;;2.10;;
20870;SDS011;10595;51.218;3.452;2023-08-31T14:06:29;31.23;;;5.17;;
20870;SDS011;10595;51.218;3.452;2023-08-31T14:08:55;11.17;;;3.03;;
20870;SDS011;10595;51.218;3.452;2023-08-31T14:11:21;5.27;;;1.93;;
20870;SDS011;10595;51.218;3.452;2023-08-31T14:13:47;6.63;;;2.03;;
20870;SDS011;10595;51.218;3.452;2023-08-31T14:16:14;8.07;;;2.20;;
20870;SDS011;10595;51.218;3.452;2023-08-31T14:18:40;8.27;;;2.33;;
20870;SDS011;10595;51.218;3.452;2023-08-31T14:21:06;4.77;;;2.00;;
20870;SDS011;10595;51.218;3.452;2023-08-31T14:23:32;7.90;;;2.50;;
20870;SDS011;10595;51.218;3.452;2023-08-31T14:26:01;9.80;;;3.03;;
20870;SDS011;10595;51.218;3.452;2023-08-31T14:28:28;4.63;;;2.03;;
20870;SDS011;10595;51.218;3.452;2023-08-31T14:30:54;5.33;;;2.20;;
20870;SDS011;10595;51.218;3.452;2023-08-31T14:33:20;7.83;;;2.40;;
20870;SDS011;10595;51.218;3.452;2023-08-31T14:35:49;6.40;;;2.20;;
20870;SDS011;10595;51.218;3.452;2023-08-31T14:38:20;8.53;;;2.30;;
20870;SDS011;10595;51.218;3.452;2023-08-31T14:40:47;8.37;;;2.40;;
20870;SDS011;10595;51.218;3.452;2023-08-31T14:43:13;11.27;;;2.17;;
20870;SDS011;10595;51.218;3.452;2023-08-31T14:45:39;5.80;;;2.20;;
20870;SDS011;10595;51.218;3.452;2023-08-31T14:48:05;7.33;;;2.40;;
20870;SDS011;10595;51.218;3.452;2023-08-31T14:50:31;5.43;;;1.97;;